sensor_id;sensor_type;location;lat;lon;timestamp;P1;durP1;ratioP1;P2;durP2;ratioP2
21837;SDS011;11081;45.946;6.140;2023-07-13T00:00:31;7.15;;;1.85;;
21837;SDS011;11081;45.946;6.140;2023-07-13T00:02:59;2.90;;;1.63;;
21837;SDS011;11081;45.946;6.140;2023-07-13T00:05:27;3.05;;;1.70;;
21837;SDS011;11081;45.946;6.140;2023-07-13T00:07:56;5.35;;;1.95;;
21837;SDS011;11081;45.946;6.140;2023-07-13T00:10:24;5.13;;;1.73;;
21837;SDS011;11081;45.946;6.140;2023-07-13T00:12:52;4.65;;;1.88;;
21837;SDS011;11081;45.946;6.140;2023-07-13T00:15:23;3.42;;;1.52;;
21837;SDS011;11081;45.946;6.140;2023-07-13T00:17:53;3.60;;;2.20;;
21837;SDS011;11081;45.946;6.140;2023-07-13T00:20:23;3.80;;;2.20;;
21837;SDS011;11081;45.946;6.140;2023-07-13T00:22:52;4.82;;;2.10;;
21837;SDS011;11081;45.946;6.140;2023-07-13T00:25:20;4.18;;;2.22;;
21837;SDS011;11081;45.946;6.140;2023-07-13T00:27:50;4.25;;;1.98;;
21837;SDS011;11081;45.946;6.140;2023-07-13T00:30:19;8.35;;;2.20;;
21837;SDS011;11081;45.946;6.140;2023-07-13T00:32:48;4.57;;;2.22;;
21837;SDS011;11081;45.946;6.140;2023-07-13T00:35:30;5.20;;;2.30;;
21837;SDS011;11081;45.946;6.140;2023-07-13T00:37:58;2.72;;;1.75;;
21837;SDS011;11081;45.946;6.140;2023-07-13T00:40:26;4.32;;;2.28;;
21837;SDS011;11081;45.946;6.140;2023-07-13T00:42:56;5.40;;;2.00;;
21837;SDS011;11081;45.946;6.140;2023-07-13T00:48:29;3.75;;;1.60;;
21837;SDS011;11081;45.946;6.140;2023-07-13T00:51:01;5.65;;;2.10;;
21837;SDS011;11081;45.946;6.140;2023-07-13T00:53:30;2.95;;;1.70;;
21837;SDS011;11081;45.946;6.140;2023-07-13T00:56:01;3.75;;;2.10;;
21837;SDS011;11081;45.946;6.140;2023-07-13T00:58:30;4.22;;;2.00;;
21837;SDS011;11081;45.946;6.140;2023-07-13T01:00:58;5.22;;;1.92;;
21837;SDS011;11081;45.946;6.140;2023-07-13T01:03:26;4.03;;;2.05;;
21837;SDS011;11081;45.946;6.140;2023-07-13T01:05:56;2.97;;;1.98;;
21837;SDS011;11081;45.946;6.140;2023-07-13T01:08:25;5.20;;;2.00;;
21837;SDS011;11081;45.946;6.140;2023-07-13T01:10:53;5.28;;;2.50;;
21837;SDS011;11081;45.946;6.140;2023-07-13T01:13:23;5.18;;;1.98;;
21837;SDS011;11081;45.946;6.140;2023-07-13T01:15:52;3.50;;;1.98;;
21837;SDS011;11081;45.946;6.140;2023-07-13T01:18:22;3.60;;;1.80;;
21837;SDS011;11081;45.946;6.140;2023-07-13T01:20:56;3.58;;;2.15;;
21837;SDS011;11081;45.946;6.140;2023-07-13T01:23:25;3.63;;;1.90;;
21837;SDS011;11081;45.946;6.140;2023-07-13T01:25:54;7.70;;;2.25;;
21837;SDS011;11081;45.946;6.140;2023-07-13T01:28:24;6.18;;;2.25;;
21837;SDS011;11081;45.946;6.140;2023-07-13T01:30:53;4.45;;;1.92;;
21837;SDS011;11081;45.946;6.140;2023-07-13T01:33:23;2.97;;;1.80;;
21837;SDS011;11081;45.946;6.140;2023-07-13T01:35:52;3.53;;;1.98;;
21837;SDS011;11081;45.946;6.140;2023-07-13T01:38:23;4.13;;;2.33;;
21837;SDS011;11081;45.946;6.140;2023-07-13T01:40:51;4.82;;;2.03;;
21837;SDS011;11081;45.946;6.140;2023-07-13T01:43:23;6.13;;;2.25;;
21837;SDS011;11081;45.946;6.140;2023-07-13T01:45:51;5.15;;;2.20;;
21837;SDS011;11081;45.946;6.140;2023-07-13T01:48:26;8.05;;;2.40;;
21837;SDS011;11081;45.946;6.140;2023-07-13T01:50:54;7.70;;;2.20;;
21837;SDS011;11081;45.946;6.140;2023-07-13T01:53:23;6.80;;;2.38;;
21837;SDS011;11081;45.946;6.140;2023-07-13T01:55:51;6.97;;;2.38;;
21837;SDS011;11081;45.946;6.140;2023-07-13T01:58:20;6.18;;;2.38;;
21837;SDS011;11081;45.946;6.140;2023-07-13T02:00:48;5.85;;;2.17;;
21837;SDS011;11081;45.946;6.140;2023-07-13T02:03:17;5.18;;;2.15;;
21837;SDS011;11081;45.946;6.140;2023-07-13T02:05:46;3.47;;;2.30;;
21837;SDS011;11081;45.946;6.140;2023-07-13T02:08:14;5.15;;;1.98;;
21837;SDS011;11081;45.946;6.140;2023-07-13T02:10:43;3.95;;;2.10;;
21837;SDS011;11081;45.946;6.140;2023-07-13T02:13:11;4.38;;;2.33;;
21837;SDS011;11081;45.946;6.140;2023-07-13T02:15:39;4.57;;;2.08;;
21837;SDS011;11081;45.946;6.140;2023-07-13T02:18:08;7.10;;;2.17;;
21837;SDS011;11081;45.946;6.140;2023-07-13T02:20:36;3.28;;;2.13;;
21837;SDS011;11081;45.946;6.140;2023-07-13T02:23:04;4.10;;;1.90;;
21837;SDS011;11081;45.946;6.140;2023-07-13T02:25:35;3.22;;;1.98;;
21837;SDS011;11081;45.946;6.140;2023-07-13T02:28:04;5.00;;;2.10;;
21837;SDS011;11081;45.946;6.140;2023-07-13T02:30:33;7.97;;;2.10;;
21837;SDS011;11081;45.946;6.140;2023-07-13T02:33:02;4.55;;;1.85;;
21837;SDS011;11081;45.946;6.140;2023-07-13T02:35:30;5.47;;;2.20;;
21837;SDS011;11081;45.946;6.140;2023-07-13T02:37:58;3.50;;;1.80;;
21837;SDS011;11081;45.946;6.140;2023-07-13T02:40:26;5.22;;;1.95;;
21837;SDS011;11081;45.946;6.140;2023-07-13T02:42:54;5.68;;;2.33;;
21837;SDS011;11081;45.946;6.140;2023-07-13T02:45:24;3.75;;;2.38;;
21837;SDS011;11081;45.946;6.140;2023-07-13T02:47:52;5.10;;;2.47;;
21837;SDS011;11081;45.946;6.140;2023-07-13T02:50:20;7.35;;;2.00;;
21837;SDS011;11081;45.946;6.140;2023-07-13T02:52:48;3.88;;;2.20;;
21837;SDS011;11081;45.946;6.140;2023-07-13T02:55:16;4.95;;;2.15;;
21837;SDS011;11081;45.946;6.140;2023-07-13T02:57:44;3.78;;;2.55;;
21837;SDS011;11081;45.946;6.140;2023-07-13T03:00:12;4.10;;;2.22;;
21837;SDS011;11081;45.946;6.140;2023-07-13T03:02:44;3.40;;;2.30;;
21837;SDS011;11081;45.946;6.140;2023-07-13T03:05:12;10.18;;;2.30;;
21837;SDS011;11081;45.946;6.140;2023-07-13T03:07:42;4.22;;;2.38;;
21837;SDS011;11081;45.946;6.140;2023-07-13T03:10:10;3.88;;;2.25;;
21837;SDS011;11081;45.946;6.140;2023-07-13T03:12:44;3.88;;;2.33;;
21837;SDS011;11081;45.946;6.140;2023-07-13T03:15:24;4.68;;;2.28;;
21837;SDS011;11081;45.946;6.140;2023-07-13T03:17:55;4.20;;;2.30;;
21837;SDS011;11081;45.946;6.140;2023-07-13T03:20:23;7.03;;;2.03;;
21837;SDS011;11081;45.946;6.140;2023-07-13T03:22:51;3.08;;;1.88;;
21837;SDS011;11081;45.946;6.140;2023-07-13T03:25:20;5.55;;;2.00;;
21837;SDS011;11081;45.946;6.140;2023-07-13T03:27:49;3.90;;;1.63;;
21837;SDS011;11081;45.946;6.140;2023-07-13T03:30:17;4.57;;;1.85;;
21837;SDS011;11081;45.946;6.140;2023-07-13T03:32:45;6.28;;;1.70;;
21837;SDS011;11081;45.946;6.140;2023-07-13T03:35:14;4.13;;;1.85;;
21837;SDS011;11081;45.946;6.140;2023-07-13T03:37:43;5.85;;;2.17;;
21837;SDS011;11081;45.946;6.140;2023-07-13T03:40:17;3.08;;;1.80;;
21837;SDS011;11081;45.946;6.140;2023-07-13T03:42:45;3.75;;;1.85;;
21837;SDS011;11081;45.946;6.140;2023-07-13T03:45:16;4.18;;;2.10;;
21837;SDS011;11081;45.946;6.140;2023-07-13T03:47:45;2.28;;;1.83;;
21837;SDS011;11081;45.946;6.140;2023-07-13T03:50:18;2.35;;;1.67;;
21837;SDS011;11081;45.946;6.140;2023-07-13T03:52:46;5.05;;;2.03;;
21837;SDS011;11081;45.946;6.140;2023-07-13T03:55:15;4.10;;;1.95;;
21837;SDS011;11081;45.946;6.140;2023-07-13T03:57:44;4.72;;;2.00;;
21837;SDS011;11081;45.946;6.140;2023-07-13T04:00:12;6.72;;;2.13;;
21837;SDS011;11081;45.946;6.140;2023-07-13T04:02:42;5.25;;;2.28;;
21837;SDS011;11081;45.946;6.140;2023-07-13T04:05:10;6.10;;;2.45;;
21837;SDS011;11081;45.946;6.140;2023-07-13T04:07:39;9.10;;;2.80;;
21837;SDS011;11081;45.946;6.140;2023-07-13T04:10:08;7.88;;;2.45;;
21837;SDS011;11081;45.946;6.140;2023-07-13T04:12:36;4.35;;;2.58;;
21837;SDS011;11081;45.946;6.140;2023-07-13T04:15:05;3.72;;;2.22;;
21837;SDS011;11081;45.946;6.140;2023-07-13T04:17:34;4.65;;;2.35;;
21837;SDS011;11081;45.946;6.140;2023-07-13T04:20:02;5.32;;;2.03;;
21837;SDS011;11081;45.946;6.140;2023-07-13T04:22:30;2.47;;;1.27;;
21837;SDS011;11081;45.946;6.140;2023-07-13T04:25:00;5.00;;;2.00;;
21837;SDS011;11081;45.946;6.140;2023-07-13T04:27:28;1.95;;;1.40;;
21837;SDS011;11081;45.946;6.140;2023-07-13T04:29:56;3.72;;;1.23;;
21837;SDS011;11081;45.946;6.140;2023-07-13T04:32:24;2.70;;;1.13;;
21837;SDS011;11081;45.946;6.140;2023-07-13T04:34:52;3.53;;;1.30;;
21837;SDS011;11081;45.946;6.140;2023-07-13T04:37:22;2.25;;;1.23;;
21837;SDS011;11081;45.946;6.140;2023-07-13T04:39:50;1.85;;;1.30;;
21837;SDS011;11081;45.946;6.140;2023-07-13T04:42:19;3.22;;;0.98;;
21837;SDS011;11081;45.946;6.140;2023-07-13T04:44:48;2.40;;;0.88;;
21837;SDS011;11081;45.946;6.140;2023-07-13T04:47:16;3.63;;;0.90;;
21837;SDS011;11081;45.946;6.140;2023-07-13T04:49:44;1.83;;;0.90;;
21837;SDS011;11081;45.946;6.140;2023-07-13T04:52:13;2.67;;;1.10;;
21837;SDS011;11081;45.946;6.140;2023-07-13T04:54:41;1.00;;;0.85;;
21837;SDS011;11081;45.946;6.140;2023-07-13T04:57:09;2.00;;;0.70;;
21837;SDS011;11081;45.946;6.140;2023-07-13T04:59:38;1.90;;;0.93;;
21837;SDS011;11081;45.946;6.140;2023-07-13T05:02:06;3.00;;;0.73;;
21837;SDS011;11081;45.946;6.140;2023-07-13T05:04:34;1.23;;;0.80;;
21837;SDS011;11081;45.946;6.140;2023-07-13T05:07:03;1.50;;;0.98;;
21837;SDS011;11081;45.946;6.140;2023-07-13T05:09:31;1.95;;;0.80;;
21837;SDS011;11081;45.946;6.140;2023-07-13T05:11:59;1.10;;;0.80;;
21837;SDS011;11081;45.946;6.140;2023-07-13T05:14:27;1.77;;;0.80;;
21837;SDS011;11081;45.946;6.140;2023-07-13T05:16:56;1.85;;;0.98;;
21837;SDS011;11081;45.946;6.140;2023-07-13T05:19:25;1.73;;;0.98;;
21837;SDS011;11081;45.946;6.140;2023-07-13T05:21:53;1.00;;;0.82;;
21837;SDS011;11081;45.946;6.140;2023-07-13T05:24:21;1.55;;;0.93;;
21837;SDS011;11081;45.946;6.140;2023-07-13T05:26:51;1.42;;;0.70;;
21837;SDS011;11081;45.946;6.140;2023-07-13T05:29:19;2.50;;;0.85;;
21837;SDS011;11081;45.946;6.140;2023-07-13T05:31:48;2.00;;;0.90;;
21837;SDS011;11081;45.946;6.140;2023-07-13T05:34:18;1.88;;;1.00;;
21837;SDS011;11081;45.946;6.140;2023-07-13T05:36:46;2.95;;;1.30;;
21837;SDS011;11081;45.946;6.140;2023-07-13T05:39:14;2.67;;;1.10;;
21837;SDS011;11081;45.946;6.140;2023-07-13T05:41:42;1.75;;;0.82;;
21837;SDS011;11081;45.946;6.140;2023-07-13T05:44:10;3.00;;;1.15;;
21837;SDS011;11081;45.946;6.140;2023-07-13T05:46:38;1.50;;;1.00;;
21837;SDS011;11081;45.946;6.140;2023-07-13T05:49:06;2.72;;;1.20;;
21837;SDS011;11081;45.946;6.140;2023-07-13T05:51:36;2.13;;;0.95;;
21837;SDS011;11081;45.946;6.140;2023-07-13T05:54:04;1.50;;;1.00;;
21837;SDS011;11081;45.946;6.140;2023-07-13T05:56:32;1.58;;;0.98;;
21837;SDS011;11081;45.946;6.140;2023-07-13T05:59:00;3.17;;;0.95;;
21837;SDS011;11081;45.946;6.140;2023-07-13T06:01:29;2.33;;;1.10;;
21837;SDS011;11081;45.946;6.140;2023-07-13T06:03:57;5.57;;;1.02;;
21837;SDS011;11081;45.946;6.140;2023-07-13T06:06:25;2.47;;;0.93;;
21837;SDS011;11081;45.946;6.140;2023-07-13T06:08:55;2.10;;;1.13;;
21837;SDS011;11081;45.946;6.140;2023-07-13T06:11:24;3.97;;;1.05;;
21837;SDS011;11081;45.946;6.140;2023-07-13T06:13:54;1.67;;;1.00;;
21837;SDS011;11081;45.946;6.140;2023-07-13T06:16:22;1.45;;;1.05;;
21837;SDS011;11081;45.946;6.140;2023-07-13T06:18:50;3.97;;;1.10;;
21837;SDS011;11081;45.946;6.140;2023-07-13T06:21:19;3.45;;;1.45;;
21837;SDS011;11081;45.946;6.140;2023-07-13T06:23:48;3.00;;;1.42;;
21837;SDS011;11081;45.946;6.140;2023-07-13T06:26:19;1.63;;;1.10;;
21837;SDS011;11081;45.946;6.140;2023-07-13T06:28:48;4.53;;;1.30;;
21837;SDS011;11081;45.946;6.140;2023-07-13T06:31:16;3.47;;;1.20;;
21837;SDS011;11081;45.946;6.140;2023-07-13T06:33:44;1.63;;;1.10;;
21837;SDS011;11081;45.946;6.140;2023-07-13T06:36:12;3.30;;;0.80;;
21837;SDS011;11081;45.946;6.140;2023-07-13T06:38:40;2.65;;;1.10;;
21837;SDS011;11081;45.946;6.140;2023-07-13T06:41:08;2.17;;;0.90;;
21837;SDS011;11081;45.946;6.140;2023-07-13T06:43:38;2.40;;;1.45;;
21837;SDS011;11081;45.946;6.140;2023-07-13T06:46:06;2.63;;;1.23;;
21837;SDS011;11081;45.946;6.140;2023-07-13T06:48:34;2.97;;;1.08;;
21837;SDS011;11081;45.946;6.140;2023-07-13T06:51:02;1.23;;;0.93;;
21837;SDS011;11081;45.946;6.140;2023-07-13T06:53:31;1.67;;;1.10;;
21837;SDS011;11081;45.946;6.140;2023-07-13T06:55:59;2.42;;;1.08;;
21837;SDS011;11081;45.946;6.140;2023-07-13T06:58:26;3.75;;;1.10;;
21837;SDS011;11081;45.946;6.140;2023-07-13T07:00:56;2.35;;;0.90;;
21837;SDS011;11081;45.946;6.140;2023-07-13T07:03:24;2.10;;;1.10;;
21837;SDS011;11081;45.946;6.140;2023-07-13T07:05:52;2.00;;;1.30;;
21837;SDS011;11081;45.946;6.140;2023-07-13T07:08:20;2.50;;;1.20;;
21837;SDS011;11081;45.946;6.140;2023-07-13T07:10:48;3.75;;;1.75;;
21837;SDS011;11081;45.946;6.140;2023-07-13T07:13:20;3.80;;;1.35;;
21837;SDS011;11081;45.946;6.140;2023-07-13T07:15:49;2.45;;;1.30;;
21837;SDS011;11081;45.946;6.140;2023-07-13T07:18:19;3.72;;;1.88;;
21837;SDS011;11081;45.946;6.140;2023-07-13T07:20:48;3.50;;;1.90;;
21837;SDS011;11081;45.946;6.140;2023-07-13T07:23:16;3.90;;;2.15;;
21837;SDS011;11081;45.946;6.140;2023-07-13T07:25:45;8.02;;;1.85;;
21837;SDS011;11081;45.946;6.140;2023-07-13T07:28:14;2.60;;;1.70;;
21837;SDS011;11081;45.946;6.140;2023-07-13T07:30:47;3.90;;;1.58;;
21837;SDS011;11081;45.946;6.140;2023-07-13T07:33:20;2.63;;;1.40;;
21837;SDS011;11081;45.946;6.140;2023-07-13T07:35:48;2.30;;;1.48;;
21837;SDS011;11081;45.946;6.140;2023-07-13T07:38:19;6.78;;;1.25;;
21837;SDS011;11081;45.946;6.140;2023-07-13T07:40:50;3.05;;;1.35;;
21837;SDS011;11081;45.946;6.140;2023-07-13T07:43:21;1.20;;;0.82;;
21837;SDS011;11081;45.946;6.140;2023-07-13T07:45:49;4.70;;;1.42;;
21837;SDS011;11081;45.946;6.140;2023-07-13T07:48:17;2.50;;;1.05;;
21837;SDS011;11081;45.946;6.140;2023-07-13T07:50:47;2.15;;;1.23;;
21837;SDS011;11081;45.946;6.140;2023-07-13T07:53:15;2.72;;;1.15;;
21837;SDS011;11081;45.946;6.140;2023-07-13T07:55:43;2.15;;;1.30;;
21837;SDS011;11081;45.946;6.140;2023-07-13T07:58:14;2.45;;;1.35;;
21837;SDS011;11081;45.946;6.140;2023-07-13T08:01:03;2.05;;;1.20;;
21837;SDS011;11081;45.946;6.140;2023-07-13T08:03:35;7.45;;;1.63;;
21837;SDS011;11081;45.946;6.140;2023-07-13T08:06:07;5.70;;;1.25;;
21837;SDS011;11081;45.946;6.140;2023-07-13T08:08:38;3.70;;;1.40;;
21837;SDS011;11081;45.946;6.140;2023-07-13T08:11:06;2.05;;;1.05;;
21837;SDS011;11081;45.946;6.140;2023-07-13T08:13:39;5.53;;;1.08;;
21837;SDS011;11081;45.946;6.140;2023-07-13T08:16:06;4.88;;;1.30;;
21837;SDS011;11081;45.946;6.140;2023-07-13T08:18:35;2.45;;;1.10;;
21837;SDS011;11081;45.946;6.140;2023-07-13T08:21:03;2.17;;;1.00;;
21837;SDS011;11081;45.946;6.140;2023-07-13T08:23:33;4.07;;;1.25;;
21837;SDS011;11081;45.946;6.140;2023-07-13T08:26:02;2.35;;;1.30;;
21837;SDS011;11081;45.946;6.140;2023-07-13T08:28:31;2.80;;;1.50;;
21837;SDS011;11081;45.946;6.140;2023-07-13T08:31:01;2.67;;;1.35;;
21837;SDS011;11081;45.946;6.140;2023-07-13T08:33:30;2.53;;;1.40;;
21837;SDS011;11081;45.946;6.140;2023-07-13T08:35:58;3.17;;;1.45;;
21837;SDS011;11081;45.946;6.140;2023-07-13T08:38:26;3.08;;;1.63;;
21837;SDS011;11081;45.946;6.140;2023-07-13T08:40:56;1.40;;;0.90;;
21837;SDS011;11081;45.946;6.140;2023-07-13T08:43:25;3.30;;;1.40;;
21837;SDS011;11081;45.946;6.140;2023-07-13T08:45:57;2.72;;;1.50;;
21837;SDS011;11081;45.946;6.140;2023-07-13T08:48:31;1.88;;;1.40;;
21837;SDS011;11081;45.946;6.140;2023-07-13T08:51:04;4.00;;;1.35;;
21837;SDS011;11081;45.946;6.140;2023-07-13T08:53:46;1.77;;;1.30;;
21837;SDS011;11081;45.946;6.140;2023-07-13T08:56:18;1.63;;;1.10;;
21837;SDS011;11081;45.946;6.140;2023-07-13T08:58:57;2.00;;;1.17;;
21837;SDS011;11081;45.946;6.140;2023-07-13T09:01:29;3.17;;;1.05;;
21837;SDS011;11081;45.946;6.140;2023-07-13T09:04:03;3.42;;;1.02;;
21837;SDS011;11081;45.946;6.140;2023-07-13T09:06:45;2.35;;;1.02;;
21837;SDS011;11081;45.946;6.140;2023-07-13T09:09:20;3.05;;;1.20;;
21837;SDS011;11081;45.946;6.140;2023-07-13T09:12:01;1.80;;;1.08;;
21837;SDS011;11081;45.946;6.140;2023-07-13T09:14:40;3.47;;;0.90;;
21837;SDS011;11081;45.946;6.140;2023-07-13T09:17:12;1.88;;;0.70;;
21837;SDS011;11081;45.946;6.140;2023-07-13T09:19:46;1.77;;;0.98;;
21837;SDS011;11081;45.946;6.140;2023-07-13T09:22:20;2.97;;;1.00;;
21837;SDS011;11081;45.946;6.140;2023-07-13T09:24:53;1.70;;;0.98;;
21837;SDS011;11081;45.946;6.140;2023-07-13T09:27:30;2.47;;;1.00;;
21837;SDS011;11081;45.946;6.140;2023-07-13T09:30:07;2.30;;;1.10;;
21837;SDS011;11081;45.946;6.140;2023-07-13T09:32:52;1.77;;;1.00;;
21837;SDS011;11081;45.946;6.140;2023-07-13T09:35:25;1.55;;;0.95;;
21837;SDS011;11081;45.946;6.140;2023-07-13T09:38:02;1.95;;;1.10;;
21837;SDS011;11081;45.946;6.140;2023-07-13T09:40:40;2.13;;;1.10;;
21837;SDS011;11081;45.946;6.140;2023-07-13T09:43:18;1.10;;;1.00;;
21837;SDS011;11081;45.946;6.140;2023-07-13T09:45:48;1.58;;;0.90;;
21837;SDS011;11081;45.946;6.140;2023-07-13T09:48:17;1.58;;;0.90;;
21837;SDS011;11081;45.946;6.140;2023-07-13T09:50:46;3.03;;;1.08;;
21837;SDS011;11081;45.946;6.140;2023-07-13T09:53:14;9.27;;;1.00;;
21837;SDS011;11081;45.946;6.140;2023-07-13T09:55:45;2.75;;;1.00;;
21837;SDS011;11081;45.946;6.140;2023-07-13T09:58:20;2.78;;;1.23;;
21837;SDS011;11081;45.946;6.140;2023-07-13T10:00:54;1.08;;;0.70;;
21837;SDS011;11081;45.946;6.140;2023-07-13T10:03:25;5.10;;;1.38;;
21837;SDS011;11081;45.946;6.140;2023-07-13T10:05:58;2.20;;;1.10;;
21837;SDS011;11081;45.946;6.140;2023-07-13T10:08:32;1.67;;;0.98;;
21837;SDS011;11081;45.946;6.140;2023-07-13T10:11:08;3.05;;;1.00;;
21837;SDS011;11081;45.946;6.140;2023-07-13T10:13:41;2.85;;;1.20;;
21837;SDS011;11081;45.946;6.140;2023-07-13T10:16:11;2.72;;;1.00;;
21837;SDS011;11081;45.946;6.140;2023-07-13T10:18:42;2.08;;;1.02;;
21837;SDS011;11081;45.946;6.140;2023-07-13T10:21:15;1.40;;;0.90;;
21837;SDS011;11081;45.946;6.140;2023-07-13T10:23:48;3.55;;;1.10;;
21837;SDS011;11081;45.946;6.140;2023-07-13T10:26:23;3.42;;;0.93;;
21837;SDS011;11081;45.946;6.140;2023-07-13T10:28:56;2.58;;;0.93;;
21837;SDS011;11081;45.946;6.140;2023-07-13T10:31:30;1.25;;;1.10;;
21837;SDS011;11081;45.946;6.140;2023-07-13T10:33:59;1.45;;;0.90;;
21837;SDS011;11081;45.946;6.140;2023-07-13T10:36:30;4.30;;;1.50;;
21837;SDS011;11081;45.946;6.140;2023-07-13T10:39:02;3.17;;;1.08;;
21837;SDS011;11081;45.946;6.140;2023-07-13T10:41:33;3.58;;;1.10;;
21837;SDS011;11081;45.946;6.140;2023-07-13T10:44:09;1.55;;;1.00;;
21837;SDS011;11081;45.946;6.140;2023-07-13T10:46:46;2.95;;;1.10;;
21837;SDS011;11081;45.946;6.140;2023-07-13T10:49:15;2.13;;;1.08;;
21837;SDS011;11081;45.946;6.140;2023-07-13T10:51:44;2.25;;;1.00;;
21837;SDS011;11081;45.946;6.140;2023-07-13T10:54:15;1.30;;;1.00;;
21837;SDS011;11081;45.946;6.140;2023-07-13T10:56:48;1.55;;;0.80;;
21837;SDS011;11081;45.946;6.140;2023-07-13T10:59:23;4.25;;;0.82;;
21837;SDS011;11081;45.946;6.140;2023-07-13T11:01:56;1.20;;;0.90;;
21837;SDS011;11081;45.946;6.140;2023-07-13T11:04:26;1.00;;;0.80;;
21837;SDS011;11081;45.946;6.140;2023-07-13T11:06:57;2.30;;;0.90;;
21837;SDS011;11081;45.946;6.140;2023-07-13T11:09:31;4.03;;;1.00;;
21837;SDS011;11081;45.946;6.140;2023-07-13T11:12:06;1.38;;;0.80;;
21837;SDS011;11081;45.946;6.140;2023-07-13T11:14:43;1.95;;;1.10;;
21837;SDS011;11081;45.946;6.140;2023-07-13T11:20:20;2.55;;;1.10;;
21837;SDS011;11081;45.946;6.140;2023-07-13T11:23:15;1.58;;;1.00;;
21837;SDS011;11081;45.946;6.140;2023-07-13T11:25:46;2.38;;;1.00;;
21837;SDS011;11081;45.946;6.140;2023-07-13T11:28:16;2.47;;;1.02;;
21837;SDS011;11081;45.946;6.140;2023-07-13T11:30:59;1.58;;;0.98;;
21837;SDS011;11081;45.946;6.140;2023-07-13T11:36:32;2.92;;;1.00;;
21837;SDS011;11081;45.946;6.140;2023-07-13T11:39:12;1.40;;;0.98;;
21837;SDS011;11081;45.946;6.140;2023-07-13T11:41:49;1.75;;;0.90;;
21837;SDS011;11081;45.946;6.140;2023-07-13T11:44:19;1.10;;;0.80;;
21837;SDS011;11081;45.946;6.140;2023-07-13T11:46:52;1.55;;;0.95;;
21837;SDS011;11081;45.946;6.140;2023-07-13T11:49:22;4.50;;;1.02;;
21837;SDS011;11081;45.946;6.140;2023-07-13T11:51:53;2.35;;;0.90;;
21837;SDS011;11081;45.946;6.140;2023-07-13T11:54:23;1.45;;;0.80;;
21837;SDS011;11081;45.946;6.140;2023-07-13T11:56:55;2.00;;;1.00;;
21837;SDS011;11081;45.946;6.140;2023-07-13T11:59:27;1.20;;;0.90;;
21837;SDS011;11081;45.946;6.140;2023-07-13T12:01:59;2.08;;;0.90;;
21837;SDS011;11081;45.946;6.140;2023-07-13T12:04:31;1.70;;;1.10;;
21837;SDS011;11081;45.946;6.140;2023-07-13T12:07:06;1.45;;;0.88;;
21837;SDS011;11081;45.946;6.140;2023-07-13T12:09:36;1.33;;;0.80;;
21837;SDS011;11081;45.946;6.140;2023-07-13T12:12:09;2.20;;;1.15;;
21837;SDS011;11081;45.946;6.140;2023-07-13T12:14:39;5.95;;;1.15;;
21837;SDS011;11081;45.946;6.140;2023-07-13T12:17:17;2.17;;;1.10;;
21837;SDS011;11081;45.946;6.140;2023-07-13T12:19:47;3.63;;;0.95;;
21837;SDS011;11081;45.946;6.140;2023-07-13T12:22:16;3.08;;;0.85;;
21837;SDS011;11081;45.946;6.140;2023-07-13T12:24:46;2.88;;;1.00;;
21837;SDS011;11081;45.946;6.140;2023-07-13T12:27:18;1.02;;;0.90;;
21837;SDS011;11081;45.946;6.140;2023-07-13T12:29:50;1.55;;;0.88;;
21837;SDS011;11081;45.946;6.140;2023-07-13T12:32:21;1.55;;;0.80;;
21837;SDS011;11081;45.946;6.140;2023-07-13T12:34:53;1.30;;;0.80;;
21837;SDS011;11081;45.946;6.140;2023-07-13T12:37:22;5.07;;;0.85;;
21837;SDS011;11081;45.946;6.140;2023-07-13T12:39:51;2.47;;;1.15;;
21837;SDS011;11081;45.946;6.140;2023-07-13T12:42:21;1.90;;;0.93;;
21837;SDS011;11081;45.946;6.140;2023-07-13T12:44:54;2.10;;;0.90;;
21837;SDS011;11081;45.946;6.140;2023-07-13T12:47:26;1.05;;;0.82;;
21837;SDS011;11081;45.946;6.140;2023-07-13T12:49:56;1.92;;;0.82;;
21837;SDS011;11081;45.946;6.140;2023-07-13T12:52:28;1.92;;;0.90;;
21837;SDS011;11081;45.946;6.140;2023-07-13T12:55:03;1.23;;;0.70;;
21837;SDS011;11081;45.946;6.140;2023-07-13T12:57:37;1.67;;;0.90;;
21837;SDS011;11081;45.946;6.140;2023-07-13T13:00:15;1.23;;;0.80;;
21837;SDS011;11081;45.946;6.140;2023-07-13T13:02:53;2.60;;;1.00;;
21837;SDS011;11081;45.946;6.140;2023-07-13T13:05:41;1.42;;;0.75;;
21837;SDS011;11081;45.946;6.140;2023-07-13T13:08:10;1.95;;;0.95;;
21837;SDS011;11081;45.946;6.140;2023-07-13T13:10:39;2.03;;;1.02;;
21837;SDS011;11081;45.946;6.140;2023-07-13T13:13:07;2.97;;;0.70;;
21837;SDS011;11081;45.946;6.140;2023-07-13T13:15:36;1.10;;;0.70;;
21837;SDS011;11081;45.946;6.140;2023-07-13T13:18:08;1.10;;;0.80;;
21837;SDS011;11081;45.946;6.140;2023-07-13T13:20:43;1.88;;;1.00;;
21837;SDS011;11081;45.946;6.140;2023-07-13T13:23:11;1.30;;;0.90;;
21837;SDS011;11081;45.946;6.140;2023-07-13T13:25:41;0.98;;;0.80;;
21837;SDS011;11081;45.946;6.140;2023-07-13T13:28:12;2.05;;;0.80;;
21837;SDS011;11081;45.946;6.140;2023-07-13T13:30:41;2.03;;;1.10;;
21837;SDS011;11081;45.946;6.140;2023-07-13T13:33:12;0.98;;;0.63;;
21837;SDS011;11081;45.946;6.140;2023-07-13T13:35:41;2.83;;;1.10;;
21837;SDS011;11081;45.946;6.140;2023-07-13T13:38:10;4.45;;;1.25;;
21837;SDS011;11081;45.946;6.140;2023-07-13T13:40:40;1.40;;;0.75;;
21837;SDS011;11081;45.946;6.140;2023-07-13T13:43:13;2.25;;;1.05;;
21837;SDS011;11081;45.946;6.140;2023-07-13T13:45:43;3.50;;;0.85;;
21837;SDS011;11081;45.946;6.140;2023-07-13T13:48:15;1.50;;;0.80;;
21837;SDS011;11081;45.946;6.140;2023-07-13T13:50:45;1.95;;;0.90;;
21837;SDS011;11081;45.946;6.140;2023-07-13T13:53:15;2.03;;;0.90;;
21837;SDS011;11081;45.946;6.140;2023-07-13T13:55:43;3.60;;;1.00;;
21837;SDS011;11081;45.946;6.140;2023-07-13T14:11:57;1.80;;;1.05;;
21837;SDS011;11081;45.946;6.140;2023-07-13T14:14:25;2.55;;;0.90;;
21837;SDS011;11081;45.946;6.140;2023-07-13T14:16:54;1.90;;;1.00;;
21837;SDS011;11081;45.946;6.140;2023-07-13T14:19:23;1.92;;;1.00;;
21837;SDS011;11081;45.946;6.140;2023-07-13T14:21:53;2.53;;;1.33;;
21837;SDS011;11081;45.946;6.140;2023-07-13T14:24:21;4.00;;;0.88;;
21837;SDS011;11081;45.946;6.140;2023-07-13T14:26:49;2.80;;;1.20;;
21837;SDS011;11081;45.946;6.140;2023-07-13T14:29:18;1.65;;;1.00;;
21837;SDS011;11081;45.946;6.140;2023-07-13T14:31:50;2.28;;;1.10;;
21837;SDS011;11081;45.946;6.140;2023-07-13T14:34:19;2.97;;;0.95;;
21837;SDS011;11081;45.946;6.140;2023-07-13T14:36:47;1.73;;;0.93;;
21837;SDS011;11081;45.946;6.140;2023-07-13T14:39:17;2.33;;;1.00;;
21837;SDS011;11081;45.946;6.140;2023-07-13T14:41:49;3.53;;;1.10;;
21837;SDS011;11081;45.946;6.140;2023-07-13T14:44:20;2.45;;;0.95;;
21837;SDS011;11081;45.946;6.140;2023-07-13T14:46:52;1.48;;;0.70;;
21837;SDS011;11081;45.946;6.140;2023-07-13T14:49:21;3.13;;;1.00;;
21837;SDS011;11081;45.946;6.140;2023-07-13T14:51:54;2.65;;;1.00;;
21837;SDS011;11081;45.946;6.140;2023-07-13T14:54:24;1.45;;;1.10;;
21837;SDS011;11081;45.946;6.140;2023-07-13T14:56:52;1.83;;;1.00;;
21837;SDS011;11081;45.946;6.140;2023-07-13T14:59:21;1.77;;;1.20;;
21837;SDS011;11081;45.946;6.140;2023-07-13T15:01:50;3.78;;;1.20;;
21837;SDS011;11081;45.946;6.140;2023-07-13T15:04:18;2.85;;;0.88;;
21837;SDS011;11081;45.946;6.140;2023-07-13T15:06:53;1.90;;;1.05;;
21837;SDS011;11081;45.946;6.140;2023-07-13T15:09:23;2.20;;;1.20;;
21837;SDS011;11081;45.946;6.140;2023-07-13T15:11:52;2.08;;;1.17;;
21837;SDS011;11081;45.946;6.140;2023-07-13T15:14:23;2.50;;;0.93;;
21837;SDS011;11081;45.946;6.140;2023-07-13T15:16:53;1.88;;;1.17;;
21837;SDS011;11081;45.946;6.140;2023-07-13T15:19:22;2.28;;;1.00;;
21837;SDS011;11081;45.946;6.140;2023-07-13T15:21:52;1.73;;;1.20;;
21837;SDS011;11081;45.946;6.140;2023-07-13T15:24:24;3.22;;;1.10;;
21837;SDS011;11081;45.946;6.140;2023-07-13T15:26:52;4.72;;;0.93;;
21837;SDS011;11081;45.946;6.140;2023-07-13T15:29:20;2.28;;;1.08;;